createdAt,value
2023-04-28T00:00:58.984Z,6.10
2023-04-28T00:03:28.408Z,6.10
2023-04-28T00:08:27.245Z,6.10
2023-04-28T00:10:55.411Z,6.00
2023-04-28T00:13:25.303Z,6.00
2023-04-28T00:15:53.841Z,5.90
2023-04-28T00:18:22.141Z,5.90
2023-04-28T00:20:50.715Z,5.90
2023-04-28T00:23:18.741Z,6.00
2023-04-28T00:25:51.580Z,6.00
2023-04-28T00:28:32.823Z,6.00
2023-04-28T00:31:03.488Z,6.00
2023-04-28T00:33:31.528Z,6.00
2023-04-28T00:36:02.652Z,6.00
2023-04-28T00:38:30.735Z,6.00
2023-04-28T00:40:58.862Z,6.10
2023-04-28T00:43:27.041Z,6.10
2023-04-28T00:45:55.720Z,6.10
2023-04-28T00:48:25.261Z,6.10
2023-04-28T00:50:53.450Z,6.10
2023-04-28T00:53:22.250Z,6.10
2023-04-28T00:55:51.606Z,6.10
2023-04-28T00:58:20.642Z,6.10
2023-04-28T01:00:48.808Z,6.10
2023-04-28T01:03:17.121Z,6.80
2023-04-28T01:05:46.782Z,6.20
2023-04-28T01:08:14.816Z,6.10
2023-04-28T01:10:45.322Z,6.10
2023-04-28T01:13:13.594Z,6.20
2023-04-28T01:15:41.863Z,6.10
2023-04-28T01:18:10.029Z,6.20
2023-04-28T01:20:38.216Z,6.20
2023-04-28T01:23:12.442Z,6.20
2023-04-28T01:25:42.159Z,6.20
2023-04-28T01:28:10.918Z,6.20
2023-04-28T01:30:39.241Z,6.20
2023-04-28T01:33:07.446Z,6.20
2023-04-28T01:35:35.541Z,6.70
2023-04-28T01:38:03.795Z,6.20
2023-04-28T01:40:31.851Z,6.30
2023-04-28T01:43:01.273Z,6.20
2023-04-28T01:45:29.362Z,7.20
2023-04-28T01:47:57.485Z,7.50
2023-04-28T01:50:25.594Z,6.20
2023-04-28T01:52:53.610Z,6.30
2023-04-28T01:55:21.648Z,6.30
2023-04-28T01:57:50.089Z,6.40
2023-04-28T02:00:20.283Z,6.40
2023-04-28T02:02:48.444Z,6.40
2023-04-28T02:05:16.728Z,7.40
2023-04-28T02:07:45.427Z,6.40
2023-04-28T02:10:13.714Z,6.40
2023-04-28T02:12:42.721Z,6.80
2023-04-28T02:15:11.617Z,6.50
2023-04-28T02:17:41.499Z,6.50
2023-04-28T02:20:10.862Z,6.90
2023-04-28T02:22:39.038Z,6.60
2023-04-28T02:25:07.986Z,6.50
2023-04-28T02:27:38.317Z,6.50
2023-04-28T02:30:07.354Z,7.60
2023-04-28T02:32:35.509Z,6.50
2023-04-28T02:35:05.445Z,6.70
2023-04-28T02:37:33.522Z,6.50
2023-04-28T02:40:01.884Z,5.10
2023-04-28T02:42:30.058Z,6.50
2023-04-28T02:44:58.128Z,6.50
2023-04-28T02:47:26.285Z,6.50
2023-04-28T02:49:54.352Z,6.50
2023-04-28T02:52:23.874Z,6.50
2023-04-28T02:54:54.677Z,6.60
2023-04-28T02:57:22.790Z,6.60
2023-04-28T02:59:50.996Z,6.90
2023-04-28T03:02:20.698Z,6.60
2023-04-28T03:04:48.847Z,7.10
2023-04-28T03:07:17.053Z,7.20
2023-04-28T03:09:48.581Z,8.10
2023-04-28T03:12:16.682Z,6.90
2023-04-28T03:14:44.791Z,6.80
2023-04-28T03:17:14.324Z,8.00
2023-04-28T03:19:42.476Z,6.80
2023-04-28T03:22:10.578Z,6.80
2023-04-28T03:24:38.620Z,7.80
2023-04-28T03:27:08.076Z,6.80
2023-04-28T03:29:36.130Z,7.80
2023-04-28T03:32:04.428Z,7.50
2023-04-28T03:34:32.581Z,6.80
2023-04-28T03:37:00.742Z,8.10
2023-04-28T03:39:28.843Z,7.90
2023-04-28T03:41:57.001Z,6.90
2023-04-28T03:44:26.765Z,7.20
2023-04-28T03:46:54.937Z,6.80
2023-04-28T03:49:23.008Z,6.90
2023-04-28T03:51:52.315Z,7.00
2023-04-28T03:54:20.452Z,7.00
2023-04-28T03:56:48.649Z,7.10
2023-04-28T03:59:16.744Z,7.10
2023-04-28T04:01:46.278Z,7.60
2023-04-28T04:04:14.598Z,7.90
2023-04-28T04:06:43.024Z,6.80
2023-04-28T04:09:11.153Z,6.90
2023-04-28T04:11:39.290Z,6.90
2023-04-28T04:14:07.516Z,8.00
2023-04-28T04:16:36.730Z,7.40
2023-04-28T04:19:06.301Z,7.00
2023-04-28T04:21:34.392Z,6.90
2023-04-28T04:24:02.513Z,7.00
2023-04-28T04:26:30.626Z,7.00
2023-04-28T04:28:58.771Z,7.50
2023-04-28T04:31:26.904Z,7.20
2023-04-28T04:33:54.995Z,7.10
2023-04-28T04:36:24.456Z,7.10
2023-04-28T04:38:54.388Z,7.50
2023-04-28T04:41:23.093Z,8.10
2023-04-28T04:43:51.212Z,8.30
2023-04-28T04:46:19.595Z,7.90
2023-04-28T04:48:47.699Z,8.60
2023-04-28T04:51:15.853Z,7.20
2023-04-28T04:53:45.294Z,7.40
2023-04-28T04:56:13.414Z,8.60
2023-04-28T04:58:44.300Z,7.30
2023-04-28T05:01:12.374Z,7.30
2023-04-28T05:03:40.605Z,8.20
2023-04-28T05:06:09.143Z,7.40
2023-04-28T05:08:37.268Z,7.40
2023-04-28T05:11:07.344Z,9.00
2023-04-28T05:13:35.438Z,7.50
2023-04-28T05:16:03.635Z,7.60
2023-04-28T05:18:31.729Z,8.80
2023-04-28T05:20:59.820Z,7.80
2023-04-28T05:23:27.898Z,8.70
2023-04-28T05:25:56.305Z,8.80
2023-04-28T05:28:25.924Z,8.10
2023-04-28T05:30:54.024Z,8.10
2023-04-28T05:33:23.813Z,9.30
2023-04-28T05:35:51.942Z,9.30
2023-04-28T05:38:21.546Z,8.30
2023-04-28T05:40:51.384Z,8.60
2023-04-28T05:43:19.590Z,8.20
2023-04-28T05:45:49.149Z,9.90
2023-04-28T05:48:17.334Z,8.20
2023-04-28T05:50:45.523Z,8.70
2023-04-28T05:53:13.737Z,8.40
2023-04-28T05:55:42.068Z,8.30
2023-04-28T05:58:10.141Z,8.30
2023-04-28T06:00:38.459Z,8.90
2023-04-28T06:03:11.321Z,8.40
2023-04-28T06:05:39.897Z,8.40
2023-04-28T06:08:08.547Z,8.40
2023-04-28T06:10:36.819Z,8.80
2023-04-28T06:13:06.403Z,8.40
2023-04-28T06:15:34.798Z,9.60
2023-04-28T06:18:03.450Z,8.50
2023-04-28T06:20:32.953Z,9.20
2023-04-28T06:23:01.104Z,8.70
2023-04-28T06:25:29.214Z,9.70
2023-04-28T06:27:57.224Z,8.80
2023-04-28T06:30:26.083Z,8.70
2023-04-28T06:32:54.623Z,10.10
2023-04-28T06:35:24.268Z,8.80
2023-04-28T06:37:53.719Z,8.80
2023-04-28T06:40:21.947Z,8.80
2023-04-28T06:42:50.011Z,8.80
2023-04-28T06:45:18.305Z,9.10
2023-04-28T06:47:46.608Z,8.80
2023-04-28T06:50:14.811Z,9.70
2023-04-28T06:52:43.072Z,9.90
2023-04-28T06:55:17.120Z,9.70
2023-04-28T06:57:45.503Z,8.80
2023-04-28T07:00:14.695Z,8.80
2023-04-28T07:02:42.989Z,8.70
2023-04-28T07:05:11.563Z,8.70
2023-04-28T07:07:40.097Z,8.70
2023-04-28T07:10:09.049Z,8.80
2023-04-28T07:12:38.601Z,8.80
2023-04-28T07:15:09.500Z,8.80
2023-04-28T07:17:38.448Z,8.80
2023-04-28T07:20:07.939Z,9.30
2023-04-28T07:22:36.099Z,8.80
2023-04-28T07:25:04.649Z,9.90
2023-04-28T07:27:32.919Z,8.80
2023-04-28T07:30:11.634Z,8.90
2023-04-28T07:32:47.168Z,10.40
2023-04-28T07:35:15.484Z,9.00
2023-04-28T07:37:44.038Z,9.00
2023-04-28T07:40:12.665Z,9.10
2023-04-28T07:42:41.019Z,9.10
2023-04-28T07:45:11.031Z,9.80
2023-04-28T07:47:39.423Z,9.20
2023-04-28T07:50:08.729Z,9.70
2023-04-28T07:52:37.061Z,9.40
2023-04-28T07:55:05.330Z,9.50
2023-04-28T07:57:33.456Z,9.60
2023-04-28T08:00:01.561Z,9.70
2023-04-28T08:02:31.146Z,9.80
2023-04-28T08:04:59.653Z,10.00
2023-04-28T08:07:28.029Z,10.10
2023-04-28T08:09:56.120Z,10.20
2023-04-28T08:12:24.192Z,10.20
2023-04-28T08:14:52.225Z,10.30
2023-04-28T08:17:20.313Z,10.50
2023-04-28T08:19:50.467Z,10.50
2023-04-28T08:22:18.535Z,10.80
2023-04-28T08:24:46.574Z,11.90
2023-04-28T08:27:14.653Z,10.80
2023-04-28T08:29:42.926Z,11.00
2023-04-28T08:32:11.056Z,12.80
2023-04-28T08:34:39.114Z,10.90
2023-04-28T08:37:09.323Z,12.00
2023-04-28T08:39:37.414Z,10.80
2023-04-28T08:42:05.837Z,11.00
2023-04-28T08:44:39.479Z,10.90
2023-04-28T08:47:14.362Z,10.90
2023-04-28T08:49:43.440Z,11.10
2023-04-28T08:52:17.548Z,11.30
2023-04-28T08:54:45.982Z,11.00
2023-04-28T08:57:17.612Z,11.00
2023-04-28T08:59:48.794Z,11.20
2023-04-28T09:02:17.299Z,11.10
2023-04-28T09:04:45.697Z,11.20
2023-04-28T09:07:15.607Z,11.30
2023-04-28T09:09:45.278Z,12.50
2023-04-28T09:12:13.379Z,12.40
2023-04-28T09:14:41.474Z,11.60
2023-04-28T09:17:13.778Z,13.30
2023-04-28T09:19:43.553Z,11.60
2023-04-28T09:22:25.314Z,12.00
2023-04-28T09:24:56.349Z,12.40
2023-04-28T09:27:28.904Z,12.70
2023-04-28T09:29:57.129Z,11.90
2023-04-28T09:32:27.899Z,12.50
2023-04-28T09:34:57.720Z,12.70
2023-04-28T09:37:27.317Z,12.20
2023-04-28T09:39:57.025Z,13.30
2023-04-28T09:42:43.658Z,12.50
2023-04-28T09:45:12.901Z,12.90
2023-04-28T09:47:42.659Z,12.50
2023-04-28T09:50:14.659Z,14.00
2023-04-28T09:52:44.336Z,12.50
2023-04-28T09:55:14.205Z,12.60
2023-04-28T09:57:43.512Z,12.50
2023-04-28T10:00:12.215Z,12.90
2023-04-28T10:02:43.720Z,12.60
2023-04-28T10:05:14.050Z,14.40
2023-04-28T10:07:42.561Z,12.30
2023-04-28T10:10:11.592Z,13.30
2023-04-28T10:12:41.323Z,11.90
2023-04-28T10:15:11.601Z,11.70
2023-04-28T10:17:40.686Z,11.50
2023-04-28T10:20:10.193Z,12.60
2023-04-28T10:23:00.434Z,11.30
2023-04-28T10:25:31.182Z,11.30
2023-04-28T10:28:01.719Z,13.50
2023-04-28T10:30:30.438Z,12.30
2023-04-28T10:33:24.051Z,10.20
2023-04-28T10:35:52.263Z,11.10
2023-04-28T10:38:21.963Z,11.60
2023-04-28T10:40:51.085Z,11.00
2023-04-28T10:43:37.789Z,11.00
2023-04-28T10:46:10.654Z,11.10
2023-04-28T10:48:58.681Z,11.90
2023-04-28T10:51:34.283Z,13.00
2023-04-28T10:54:21.366Z,11.00
2023-04-28T10:57:21.481Z,11.00
2023-04-28T11:00:14.034Z,11.10
2023-04-28T11:02:44.765Z,11.30
2023-04-28T11:05:20.601Z,13.10
2023-04-28T11:08:34.367Z,13.30
2023-04-28T11:11:23.063Z,11.20
2023-04-28T11:13:51.751Z,11.20
2023-04-28T11:16:23.663Z,11.30
2023-04-28T11:19:03.821Z,11.30
2023-04-28T11:21:33.730Z,12.70
2023-04-28T11:24:02.294Z,11.40
2023-04-28T11:26:30.509Z,11.90
2023-04-28T11:28:59.682Z,13.40
2023-04-28T11:31:29.223Z,11.50
2023-04-28T11:34:04.911Z,12.80
2023-04-28T11:36:36.119Z,11.60
2023-04-28T11:39:07.523Z,11.80
2023-04-28T11:41:36.520Z,12.00
2023-04-28T11:44:12.413Z,13.10
2023-04-28T11:46:51.099Z,11.90
2023-04-28T11:49:20.450Z,12.40
2023-04-28T11:51:50.211Z,11.60
2023-04-28T11:54:22.305Z,13.00
2023-04-28T11:56:52.102Z,11.90
2023-04-28T12:01:55.325Z,11.80
2023-04-28T12:04:31.945Z,13.10
2023-04-28T12:07:02.153Z,12.60
2023-04-28T12:09:30.588Z,12.00
2023-04-28T12:11:59.919Z,12.10
2023-04-28T12:14:28.037Z,12.20
2023-04-28T12:16:58.522Z,12.20
2023-04-28T12:19:26.774Z,13.00
2023-04-28T12:22:03.020Z,12.20
2023-04-28T12:24:31.430Z,12.40
2023-04-28T12:27:21.717Z,12.40
2023-04-28T12:29:50.774Z,12.40
2023-04-28T12:32:20.451Z,12.30
2023-04-28T12:34:50.681Z,12.30
2023-04-28T12:37:19.074Z,12.30
2023-04-28T12:39:47.485Z,13.00
2023-04-28T12:42:15.587Z,12.40
2023-04-28T12:44:43.610Z,13.40
2023-04-28T12:47:12.103Z,13.20
2023-04-28T12:49:42.102Z,13.40
2023-04-28T12:52:10.191Z,12.60
2023-04-28T12:54:38.419Z,12.50
2023-04-28T12:57:06.809Z,12.60
2023-04-28T12:59:35.082Z,12.70
2023-04-28T13:02:03.442Z,12.80
2023-04-28T13:04:32.823Z,12.80
2023-04-28T13:07:02.631Z,12.70
2023-04-28T13:09:30.794Z,12.70
2023-04-28T13:11:59.362Z,13.60
2023-04-28T13:14:28.098Z,12.80
2023-04-28T13:16:57.096Z,12.90
2023-04-28T13:19:25.691Z,13.00
2023-04-28T13:21:53.858Z,13.00
2023-04-28T13:24:23.308Z,13.30
2023-04-28T13:26:52.597Z,13.20
2023-04-28T13:29:20.741Z,13.70
2023-04-28T13:31:48.821Z,13.50
2023-04-28T13:34:17.904Z,13.50
2023-04-28T13:36:48.367Z,13.50
2023-04-28T13:39:16.620Z,13.50
2023-04-28T13:41:46.194Z,13.50
2023-04-28T13:44:14.340Z,13.50
2023-04-28T13:46:42.487Z,13.50
2023-04-28T13:49:11.401Z,13.40
2023-04-28T13:51:39.959Z,13.40
2023-04-28T13:54:11.247Z,13.60
2023-04-28T13:56:39.568Z,13.60
2023-04-28T13:59:09.001Z,13.70
2023-04-28T14:01:37.171Z,14.00
2023-04-28T14:04:05.727Z,13.90
2023-04-28T14:06:35.022Z,13.80
2023-04-28T14:09:03.576Z,13.60
2023-04-28T14:11:31.800Z,13.60
2023-04-28T14:13:59.905Z,13.60
2023-04-28T14:16:30.542Z,13.70
2023-04-28T14:18:59.917Z,13.60
2023-04-28T14:21:28.653Z,13.50
2023-04-28T14:23:56.703Z,13.60
2023-04-28T14:26:25.385Z,13.50
2023-04-28T14:28:53.743Z,13.40
2023-04-28T14:31:21.858Z,14.10
2023-04-28T14:33:51.395Z,14.50
2023-04-28T14:36:19.586Z,13.50
2023-04-28T14:38:47.691Z,13.40
2023-04-28T14:41:15.878Z,13.40
2023-04-28T14:43:44.904Z,13.40
2023-04-28T14:46:13.112Z,13.40
2023-04-28T14:48:41.427Z,13.40
2023-04-28T14:51:11.153Z,13.50
2023-04-28T14:53:39.264Z,13.30
2023-04-28T14:56:18.037Z,14.30
2023-04-28T14:58:47.096Z,13.40
2023-04-28T15:01:15.192Z,13.30
2023-04-28T15:03:44.581Z,13.20
2023-04-28T15:06:14.356Z,13.30
2023-04-28T15:08:42.734Z,13.30
2023-04-28T15:11:10.930Z,13.20
2023-04-28T15:13:40.441Z,13.30
2023-04-28T15:16:10.630Z,13.20
2023-04-28T15:18:39.581Z,13.10
2023-04-28T15:21:08.590Z,13.10
2023-04-28T15:23:38.146Z,13.00
2023-04-28T15:26:06.694Z,11.10
2023-04-28T15:28:35.279Z,13.10
2023-04-28T15:31:04.989Z,13.10
2023-04-28T15:33:33.632Z,14.40
2023-04-28T15:36:01.732Z,13.50
2023-04-28T15:38:31.699Z,14.00
2023-04-28T15:41:01.488Z,14.20
2023-04-28T15:43:29.570Z,13.20
2023-04-28T15:45:57.809Z,13.10
2023-04-28T15:48:26.369Z,13.80
2023-04-28T15:50:54.728Z,13.20
2023-04-28T15:53:23.038Z,13.30
2023-04-28T15:55:51.175Z,13.80
2023-04-28T15:58:21.703Z,13.50
2023-04-28T16:00:49.835Z,14.80
2023-04-28T16:03:18.090Z,13.80
2023-04-28T16:05:46.271Z,12.10
2023-04-28T16:08:14.583Z,13.80
2023-04-28T16:10:43.115Z,13.80
2023-04-28T16:13:12.296Z,13.80
2023-04-28T16:15:42.866Z,13.80
2023-04-28T16:18:11.079Z,14.50
2023-04-28T16:20:39.280Z,13.80
2023-04-28T16:23:07.940Z,13.80
2023-04-28T16:25:36.612Z,13.80
2023-04-28T16:28:04.766Z,13.80
2023-04-28T16:30:33.114Z,13.70
2023-04-28T16:33:02.606Z,13.70
2023-04-28T16:35:30.893Z,13.70
2023-04-28T16:37:59.029Z,15.50
2023-04-28T16:40:27.164Z,14.60
2023-04-28T16:42:55.411Z,13.80
2023-04-28T16:45:23.716Z,13.70
2023-04-28T16:47:52.105Z,13.80
2023-04-28T16:50:21.835Z,13.70
2023-04-28T16:52:50.039Z,13.70
2023-04-28T16:55:18.928Z,13.60
2023-04-28T16:57:47.026Z,14.00
2023-04-28T17:00:16.259Z,13.50
2023-04-28T17:02:44.427Z,13.50
2023-04-28T17:05:12.810Z,14.80
2023-04-28T17:07:42.407Z,13.40
2023-04-28T17:10:11.432Z,13.40
2023-04-28T17:12:40.824Z,13.40
2023-04-28T17:15:09.810Z,13.30
2023-04-28T17:17:37.935Z,13.30
2023-04-28T17:20:07.076Z,14.90
2023-04-28T17:22:35.657Z,13.20
2023-04-28T17:25:06.533Z,13.20
2023-04-28T17:27:34.807Z,13.20
2023-04-28T17:30:02.997Z,15.00
2023-04-28T17:32:33.430Z,13.10
2023-04-28T17:35:01.539Z,13.10
2023-04-28T17:37:30.882Z,13.10
2023-04-28T17:39:59.271Z,13.10
2023-04-28T17:42:30.214Z,13.80
2023-04-28T17:44:58.226Z,13.00
2023-04-28T17:47:26.203Z,13.00
2023-04-28T17:50:14.178Z,13.00
2023-04-28T17:53:02.110Z,13.20
2023-04-28T17:55:50.152Z,12.90
2023-04-28T17:58:19.674Z,12.80
2023-04-28T18:00:47.703Z,13.10
2023-04-28T18:03:15.777Z,12.80
2023-04-28T18:05:43.804Z,13.70
2023-04-28T18:08:11.985Z,13.10
2023-04-28T18:10:39.913Z,14.80
2023-04-28T18:13:08.774Z,12.60
2023-04-28T18:15:38.288Z,12.60
2023-04-28T18:18:06.249Z,14.00
2023-04-28T18:20:34.371Z,13.00
2023-04-28T18:23:02.338Z,12.50
2023-04-28T18:25:32.146Z,12.50
2023-04-28T18:28:00.413Z,12.70
2023-04-28T18:30:37.774Z,13.30
2023-04-28T18:33:08.919Z,13.80
2023-04-28T18:35:37.967Z,13.80
2023-04-28T18:38:06.185Z,12.40
2023-04-28T18:40:34.355Z,12.30
2023-04-28T18:43:03.057Z,13.40
2023-04-28T18:45:33.260Z,12.30
2023-04-28T18:48:02.257Z,12.30
2023-04-28T18:50:32.775Z,12.80
2023-04-28T18:53:01.902Z,12.20
2023-04-28T18:55:30.239Z,12.10
2023-04-28T18:57:58.180Z,12.00
2023-04-28T19:00:27.225Z,12.50
2023-04-28T19:02:55.472Z,11.90
2023-04-28T19:05:23.788Z,12.30
2023-04-28T19:07:53.198Z,11.90
2023-04-28T19:10:21.133Z,13.10
2023-04-28T19:12:49.127Z,11.80
2023-04-28T19:15:18.236Z,11.80
2023-04-28T19:17:46.428Z,11.80
2023-04-28T19:20:14.574Z,12.20
2023-04-28T19:22:43.835Z,11.80
2023-04-28T19:25:13.358Z,12.10
2023-04-28T19:27:43.003Z,11.80
2023-04-28T19:30:12.803Z,11.80
2023-04-28T19:32:41.371Z,11.80
2023-04-28T19:35:10.469Z,11.80
2023-04-28T19:37:38.800Z,11.80
2023-04-28T19:40:08.590Z,13.10
2023-04-28T19:42:38.531Z,11.70
2023-04-28T19:45:08.099Z,11.70
2023-04-28T19:47:36.907Z,11.60
2023-04-28T19:50:05.292Z,11.60
2023-04-28T19:52:33.410Z,11.60
2023-04-28T19:55:01.952Z,11.60
2023-04-28T19:57:30.035Z,11.90
2023-04-28T19:59:59.565Z,11.40
2023-04-28T20:02:27.599Z,11.40
2023-04-28T20:04:56.539Z,11.40
2023-04-28T20:07:24.556Z,11.20
2023-04-28T20:09:56.091Z,11.20
2023-04-28T20:12:24.156Z,11.20
2023-04-28T20:14:53.231Z,11.00
2023-04-28T20:17:22.718Z,11.00
2023-04-28T20:19:51.023Z,11.00
2023-04-28T20:22:19.220Z,12.00
2023-04-28T20:24:47.145Z,10.70
2023-04-28T20:27:15.273Z,10.60
2023-04-28T20:29:43.243Z,10.50
2023-04-28T20:32:11.198Z,11.60
2023-04-28T20:34:41.342Z,10.60
2023-04-28T20:37:09.809Z,11.40
2023-04-28T20:39:37.741Z,10.20
2023-04-28T20:42:06.572Z,10.10
2023-04-28T20:44:34.515Z,10.10
2023-04-28T20:47:02.592Z,10.10
2023-04-28T20:49:31.092Z,10.10
2023-04-28T20:52:05.287Z,10.10
2023-04-28T20:54:35.609Z,10.10
2023-04-28T20:57:03.902Z,10.10
2023-04-28T20:59:32.793Z,11.00
2023-04-28T21:04:29.991Z,9.90
2023-04-28T21:06:58.345Z,9.80
2023-04-28T21:09:27.879Z,9.70
2023-04-28T21:11:56.045Z,9.70
2023-04-28T21:14:24.193Z,9.60
2023-04-28T21:16:52.269Z,9.60
2023-04-28T21:19:20.226Z,9.50
2023-04-28T21:21:48.205Z,9.40
2023-04-28T21:24:16.134Z,9.30
2023-04-28T21:26:45.423Z,9.20
2023-04-28T21:29:13.411Z,9.20
2023-04-28T21:31:41.373Z,9.20
2023-04-28T21:34:09.559Z,9.20
2023-04-28T21:36:37.520Z,10.70
2023-04-28T21:39:06.128Z,9.20
2023-04-28T21:41:34.227Z,9.10
2023-04-28T21:44:03.617Z,9.20
2023-04-28T21:46:31.660Z,9.00
2023-04-28T21:48:59.684Z,9.00
2023-04-28T21:51:27.717Z,9.00
2023-04-28T21:53:55.694Z,9.00
2023-04-28T21:56:23.632Z,9.10
2023-04-28T21:58:51.566Z,10.10
2023-04-28T22:01:21.152Z,9.10
2023-04-28T22:03:49.305Z,9.90
2023-04-28T22:06:17.500Z,9.20
2023-04-28T22:08:45.469Z,9.30
2023-04-28T22:11:13.664Z,9.30
2023-04-28T22:13:41.579Z,9.30
2023-04-28T22:16:09.719Z,9.30
2023-04-28T22:18:39.260Z,10.20
2023-04-28T22:21:07.944Z,9.90
2023-04-28T22:23:36.094Z,9.40
2023-04-28T22:26:04.624Z,9.50
2023-04-28T22:28:33.565Z,9.50
2023-04-28T22:31:01.828Z,9.50
2023-04-28T22:33:29.817Z,9.60
2023-04-28T22:35:59.396Z,10.60
2023-04-28T22:38:27.357Z,9.70
2023-04-28T22:40:55.284Z,9.70
2023-04-28T22:43:23.409Z,9.60
2023-04-28T22:45:52.533Z,10.40
2023-04-28T22:48:20.641Z,10.30
2023-04-28T22:50:49.555Z,9.70
2023-04-28T22:53:19.707Z,9.60
2023-04-28T22:55:48.688Z,10.70
2023-04-28T22:58:16.711Z,11.10
2023-04-28T23:00:44.670Z,9.70
2023-04-28T23:03:12.674Z,9.70
2023-04-28T23:05:40.846Z,9.70
2023-04-28T23:08:08.754Z,9.80
2023-04-28T23:10:38.067Z,9.70
2023-04-28T23:13:06.161Z,9.70
2023-04-28T23:15:34.090Z,9.80
2023-04-28T23:18:02.413Z,9.70
2023-04-28T23:20:30.495Z,10.40
2023-04-28T23:22:59.338Z,9.60
2023-04-28T23:25:27.496Z,9.70
2023-04-28T23:27:56.810Z,9.80
2023-04-28T23:30:24.766Z,9.70
2023-04-28T23:32:52.828Z,9.80
2023-04-28T23:35:21.174Z,10.10
2023-04-28T23:37:49.377Z,9.80
2023-04-28T23:40:17.590Z,9.90
2023-04-28T23:42:45.583Z,9.90
2023-04-28T23:45:16.125Z,9.80
2023-04-28T23:47:44.109Z,9.80
2023-04-28T23:50:12.563Z,9.90
2023-04-28T23:52:41.115Z,9.80
2023-04-28T23:55:10.484Z,9.80
2023-04-28T23:57:38.927Z,9.90
